Time;durP1;ratioP1;P1;durP2;ratioP2;P2;SDS_P1;SDS_P2;PMS_P1;PMS_P2;Temp;Humidity;BMP_temperature;BMP_pressure;BME280_temperature;BME280_humidity;BME280_pressure;Samples;Min_cycle;Max_cycle;Signal;HPM_P1;HPM_P2
2023/09/26 00:03:13;;;;;;;27.75;16.60;;;;;;;15.52;100.00;100924.59;10451212;28;20033;-76
2023/09/26 00:08:16;;;;;;;23.15;16.95;;;;;;;15.02;100.00;100843.25;10450049;28;20044;-76
2023/09/26 00:13:17;;;;;;;18.90;15.07;;;;;;;15.54;100.00;100933.28;10449878;28;20036;-75
2023/09/26 00:18:18;;;;;;;21.35;15.05;;;;;;;15.33;100.00;100895.75;10447708;28;20275;-75
2023/09/26 00:23:19;;;;;;;19.35;10.73;;;;;;;15.23;100.00;100914.75;10449747;28;20064;-75
2023/09/26 00:28:20;;;;;;;12.55;9.50;;;;;;;15.21;100.00;100960.44;10450627;28;20136;-75
2023/09/26 00:33:22;;;;;;;19.10;9.25;;;;;;;15.00;100.00;100918.34;10450439;28;20545;-75
2023/09/26 00:38:23;;;;;;;12.40;9.20;;;;;;;14.89;100.00;100880.50;10448894;28;20037;-75
2023/09/26 00:43:24;;;;;;;13.20;10.40;;;;;;;15.10;100.00;100885.94;10449266;28;20049;-75
2023/09/26 00:48:25;;;;;;;14.98;10.88;;;;;;;15.61;100.00;100934.19;10449669;28;20043;-75
2023/09/26 00:53:27;;;;;;;16.35;10.95;;;;;;;15.75;100.00;100930.69;10450033;28;20041;-75
2023/09/26 01:10:23;;;;;;;16.38;12.73;;;;;;;16.13;100.00;100932.38;10442126;28;20400;-76
2023/09/26 01:15:36;;;;;;;21.23;12.73;;;;;;;16.28;100.00;100926.97;10440977;28;20069;-75
2023/09/26 01:20:44;;;;;;;16.83;11.23;;;;;;;16.06;100.00;100883.22;10441940;28;20044;-76
2023/09/26 01:25:45;;;;;;;15.80;11.25;;;;;;;16.31;100.00;100927.41;10440764;28;20048;-76
2023/09/26 01:30:46;;;;;;;16.88;11.65;;;;;;;16.36;100.00;100930.34;10440988;28;20045;-76
2023/09/26 01:35:51;;;;;;;14.50;10.82;;;;;;;16.20;100.00;100898.41;10440263;28;20041;-76
2023/09/26 01:40:52;;;;;;;15.68;12.23;;;;;;;16.42;100.00;100921.53;10439485;28;20045;-76
2023/09/26 01:45:54;;;;;;;10.85;9.35;;;;;;;16.49;100.00;100921.59;10441376;28;20495;-76
2023/09/26 01:50:55;;;;;;;10.23;7.30;;;;;;;16.56;100.00;100930.50;10439972;28;20090;-76
2023/09/26 03:06:49;;;;;;;14.75;7.85;;;;;;;16.29;100.00;100950.06;10480961;28;20403;-78
2023/09/26 03:11:50;;;;;;;10.35;7.63;;;;;;;16.10;100.00;100928.22;10440461;28;20049;-76
2023/09/26 03:16:50;;;;;;;8.77;7.78;;;;;;;16.21;100.00;100945.63;10441875;28;20074;-75
2023/09/26 03:21:51;;;;;;;30.65;13.10;;;;;;;16.13;100.00;100933.19;10440909;28;20045;-78
2023/09/26 03:26:52;;;;;;;31.35;13.30;;;;;;;16.26;100.00;100959.31;10439294;28;20062;-77
2023/09/26 03:45:43;;;;;;;15.35;5.78;;;;;;;16.47;100.00;100987.16;10482680;28;20399;-76
2023/09/26 03:50:46;;;;;;;42.25;13.70;;;;;;;16.56;100.00;101002.09;10483193;28;20049;-76
2023/09/26 03:55:54;;;;;;;15.57;7.60;;;;;;;16.58;100.00;101006.25;10461180;28;20510;-76
2023/09/26 04:00:55;;;;;;;27.23;8.30;;;;;;;16.55;100.00;101022.75;10438203;28;20045;-77
2023/09/26 04:05:56;;;;;;;25.00;7.57;;;;;;;16.31;100.00;100977.53;10442198;28;20033;-76
2023/09/26 04:10:58;;;;;;;9.65;8.20;;;;;;;16.55;100.00;101008.50;10440219;28;20098;-80
2023/09/26 04:16:04;;;;;;;15.35;8.40;;;;;;;16.67;100.00;101020.38;10441308;28;20120;-80
2023/09/26 04:21:06;;;;;;;15.52;9.40;;;;;;;16.60;100.00;100998.00;10439776;28;20049;-75
2023/09/26 04:26:15;;;;;;;15.02;9.85;;;;;;;16.82;100.00;101029.22;10441434;28;20037;-87
2023/09/26 04:31:17;;;;;;;23.38;11.23;;;;;;;16.75;100.00;101012.22;10438565;28;20419;-79
2023/09/26 04:36:18;;;;;;;19.98;14.27;;;;;;;16.65;100.00;100982.19;10439580;28;20037;-78
2023/09/26 04:53:59;;;;;;;16.05;10.23;;;;;;;17.09;100.00;101002.63;10657031;27;20450;-82
2023/09/26 04:59:00;;;;;;;14.50;9.95;;;;;;;17.31;100.00;101031.06;10659300;27;20038;-78
2023/09/26 05:04:00;;;;;;;16.05;9.80;;;;;;;17.18;100.00;101004.13;10658431;27;20046;-75
2023/09/26 05:09:01;;;;;;;12.75;9.88;;;;;;;17.44;100.00;101037.56;10657927;27;20035;-75
2023/09/26 05:14:02;;;;;;;17.15;10.45;;;;;;;17.24;100.00;100986.41;10658463;27;20084;-75
2023/09/26 05:19:03;;;;;;;15.85;10.25;;;;;;;17.57;100.00;101027.75;10657587;27;20043;-75
2023/09/26 05:24:04;;;;;;;17.45;10.23;;;;;;;17.47;100.00;101005.78;10658165;27;20043;-75
2023/09/26 05:29:05;;;;;;;16.45;10.00;;;;;;;17.61;100.00;101025.47;10658028;27;20063;-78
2023/09/26 05:34:07;;;;;;;15.55;10.75;;;;;;;17.30;100.00;100972.19;10510613;27;20076;-77
2023/09/26 05:39:08;;;;;;;14.20;9.73;;;;;;;17.40;100.00;100977.22;10439554;28;20052;-81
2023/09/26 05:44:12;;;;;;;23.95;10.65;;;;;;;17.95;100.00;101050.72;10439397;28;20045;-77
2023/09/26 05:49:12;;;;;;;20.38;9.95;;;;;;;18.10;100.00;101053.25;10439384;28;20124;-80
2023/09/26 05:54:13;;;;;;;16.25;9.32;;;;;;;18.13;100.00;101059.09;10415147;28;20136;-85
2023/09/26 05:59:14;;;;;;;10.70;7.60;;;;;;;18.20;100.00;101065.31;10411571;28;20618;-75
2023/09/26 06:04:16;;;;;;;9.35;7.60;;;;;;;18.31;100.00;101060.38;10411303;28;20041;-77
2023/09/26 06:09:17;;;;;;;13.88;8.10;;;;;;;18.37;100.00;101075.72;10411950;28;20041;-82
2023/09/26 06:14:18;;;;;;;10.13;7.78;;;;;;;18.35;100.00;101067.84;10411919;28;20049;-77
2023/09/26 06:19:18;;;;;;;12.65;7.97;;;;;;;18.17;100.00;101022.69;10411059;28;20492;-77
2023/09/26 06:24:19;;;;;;;14.27;7.90;;;;;;;18.11;100.00;100983.16;10410958;28;20045;-76
2023/09/26 06:29:20;;;;;;;8.88;6.57;;;;;;;18.78;100.00;101074.81;10411297;28;20044;-75
2023/09/26 06:34:20;;;;;;;12.70;6.35;;;;;;;18.84;100.00;101039.00;10411045;27;20451;-82
2023/09/26 07:02:17;;;;;;;9.00;5.28;;;;;;;20.82;92.74;101036.84;10482152;28;20416;-76
2023/09/26 07:07:18;;;;;;;11.27;4.70;;;;;;;21.59;88.58;101023.06;10482482;28;20415;-76
2023/09/26 07:12:18;;;;;;;9.43;4.20;;;;;;;22.40;85.37;101040.03;10440638;28;20049;-71
2023/09/26 07:17:19;;;;;;;14.07;4.75;;;;;;;22.96;83.20;101022.56;10441589;28;20063;-69
2023/09/26 07:22:20;;;;;;;13.23;4.18;;;;;;;23.27;81.16;100996.16;10439937;28;20071;-76
2023/09/26 07:27:20;;;;;;;10.48;3.85;;;;;;;23.78;78.31;101021.72;10440333;28;20052;-73
2023/09/26 07:32:21;;;;;;;8.52;3.20;;;;;;;23.89;76.33;101023.59;10440122;28;20041;-71
2023/09/26 07:37:22;;;;;;;13.30;3.72;;;;;;;23.75;76.54;100976.09;10440278;28;20445;-72
2023/09/26 07:42:23;;;;;;;8.32;2.80;;;;;;;23.40;71.19;100890.19;10440428;28;20044;-73
2023/09/26 07:47:24;;;;;;;11.98;4.00;;;;;;;24.22;70.42;100957.75;10440175;28;20049;-75
2023/09/26 07:52:26;;;;;;;5.07;2.78;;;;;;;24.99;67.31;101013.41;10438794;28;20514;-87
2023/09/26 07:57:27;;;;;;;35.15;4.13;;;;;;;25.06;65.29;101005.91;10435479;28;20170;-73
2023/09/26 08:02:28;;;;;;;9.13;2.88;;;;;;;24.70;63.35;101005.31;10410484;28;20514;-73
2023/09/26 08:07:29;;;;;;;15.55;3.60;;;;;;;24.21;65.44;100955.28;10411551;28;20071;-78
2023/09/26 08:12:31;;;;;;;10.95;2.70;;;;;;;24.97;56.59;101005.50;10406858;28;20040;-74
2023/09/26 08:17:32;;;;;;;10.02;2.50;;;;;;;25.21;54.14;100984.41;10412072;28;20048;-76
2023/09/26 08:22:33;;;;;;;10.25;2.30;;;;;;;25.47;51.14;100984.78;10411594;28;20052;-73
2023/09/26 08:27:35;;;;;;;5.65;2.28;;;;;;;25.74;50.71;100990.31;10411566;28;20128;-75
2023/09/26 08:53:34;;;;;;;22.83;3.35;;;;;;;26.44;49.45;100960.56;10482324;28;20395;-71
2023/09/26 08:58:35;;;;;;;10.25;2.67;;;;;;;26.29;49.45;100921.22;10483195;27;20040;-72
2023/09/26 09:03:36;;;;;;;9.43;2.92;;;;;;;26.17;48.85;100893.34;10483136;28;20029;-72
2023/09/26 09:08:36;;;;;;;5.65;2.50;;;;;;;26.62;48.82;100925.63;10482585;28;20032;-73
2023/09/26 09:13:38;;;;;;;13.00;2.30;;;;;;;26.99;48.38;100940.34;10478956;28;20076;-72
2023/09/26 09:18:42;;;;;;;10.38;2.67;;;;;;;27.35;48.55;100965.13;10479502;28;20045;-73
2023/09/26 09:23:50;;;;;;;8.88;2.40;;;;;;;26.88;48.81;100960.44;10440523;28;20045;-71
2023/09/26 09:28:59;;;;;;;18.65;2.95;;;;;;;26.38;50.02;100937.91;10440075;28;20048;-75
2023/09/26 09:33:59;;;;;;;14.23;2.67;;;;;;;26.34;49.38;100932.16;10441353;28;20510;-76
2023/09/26 09:39:02;;;;;;;7.95;2.53;;;;;;;26.13;47.30;100933.06;10440437;28;20044;-72
2023/09/26 09:44:04;;;;;;;9.85;2.63;;;;;;;26.16;46.05;100916.19;10436262;28;20037;-75
2023/09/26 09:49:12;;;;;;;6.53;2.40;;;;;;;26.61;44.29;100928.59;10443132;28;20128;-74
2023/09/26 09:54:13;;;;;;;9.90;2.20;;;;;;;27.14;44.26;100904.97;10414309;28;20042;-75
2023/09/26 09:59:16;;;;;;;7.20;2.53;;;;;;;27.01;43.84;100790.91;10412253;28;20044;-78
2023/09/26 10:04:17;;;;;;;19.00;3.27;;;;;;;27.80;42.80;100900.91;10412291;28;20480;-75
2023/09/26 10:09:20;;;;;;;8.88;2.28;;;;;;;27.32;40.97;100901.00;10410529;28;20128;-75
2023/09/26 10:14:22;;;;;;;12.18;2.65;;;;;;;27.49;40.06;100863.41;10410184;28;20051;-76
2023/09/26 10:53:47;;;;;;;16.35;2.90;;;;;;;28.24;36.93;100887.59;12761062;22;1754442;-78
2023/09/26 10:58:48;;;;;;;11.25;2.90;;;;;;;28.09;37.59;100891.16;12878249;23;20016;-78
2023/09/26 11:03:48;;;;;;;9.73;2.63;;;;;;;27.67;37.57;100853.91;12876566;23;20069;-76
2023/09/26 11:08:50;;;;;;;10.52;2.72;;;;;;;27.99;37.54;100888.38;12876756;23;20013;-77
2023/09/26 11:30:27;;;;;;;11.10;2.70;;;;;;;27.80;36.73;100846.31;12814696;23;20017;-82
2023/09/26 11:35:28;;;;;;;8.63;2.20;;;;;;;28.00;37.57;100851.81;12809326;23;20360;-80
2023/09/26 11:40:29;;;;;;;19.08;2.78;;;;;;;28.21;38.02;100850.72;12799940;23;20028;-77
2023/09/26 11:45:30;;;;;;;8.30;2.30;;;;;;;27.98;37.32;100864.91;12800340;23;20380;-79
2023/09/26 11:50:31;;;;;;;10.98;2.55;;;;;;;27.26;37.28;100842.88;12799762;23;20020;-79
2023/09/26 11:55:33;;;;;;;15.90;2.55;;;;;;;27.33;38.77;100874.53;12800324;23;20029;-77
2023/09/26 12:00:33;;;;;;;12.40;2.53;;;;;;;27.00;38.31;100871.06;12773339;23;20341;-78
2023/09/26 12:05:35;;;;;;;14.45;2.72;;;;;;;26.91;36.57;100848.94;12800340;23;20012;-80
2023/09/26 12:10:35;;;;;;;10.85;2.03;;;;;;;27.02;36.75;100826.09;12799290;23;20059;-77
2023/09/26 12:15:37;;;;;;;13.43;2.33;;;;;;;27.02;35.49;100804.28;12799882;23;20441;-79
2023/09/26 12:20:37;;;;;;;13.65;2.53;;;;;;;27.45;34.78;100861.47;12800129;23;20020;-79
2023/09/26 12:25:39;;;;;;;9.30;1.90;;;;;;;27.24;35.71;100803.31;12747964;23;20024;-79
2023/09/26 12:30:41;;;;;;;16.00;3.13;;;;;;;27.55;35.25;100853.31;12800279;23;20042;-80
2023/09/26 12:35:42;;;;;;;9.93;2.37;;;;;;;27.63;35.56;100871.09;12799451;23;20021;-80
2023/09/26 12:40:42;;;;;;;7.65;1.85;;;;;;;27.36;34.86;100847.53;12799441;23;20021;-76
2023/09/26 12:45:43;;;;;;;11.68;2.45;;;;;;;27.09;35.61;100862.13;12799359;23;20017;-78
2023/09/26 12:50:44;;;;;;;24.27;3.35;;;;;;;26.67;35.75;100845.81;12799305;23;20017;-79
2023/09/26 12:55:45;;;;;;;11.80;2.50;;;;;;;26.82;35.01;100870.44;12799042;23;20017;-81
2023/09/26 13:00:46;;;;;;;12.75;1.95;;;;;;;26.49;34.92;100808.91;12798974;23;20019;-80
2023/09/26 13:05:46;;;;;;;12.90;2.50;;;;;;;26.59;34.40;100838.97;12798832;23;20369;-77
2023/09/26 13:10:47;;;;;;;13.52;2.33;;;;;;;26.75;35.34;100867.13;12799018;23;20103;-79
2023/09/26 13:15:48;;;;;;;11.02;2.40;;;;;;;26.46;34.86;100824.94;12798819;23;20016;-80
2023/09/26 13:20:49;;;;;;;10.05;2.60;;;;;;;26.67;34.74;100873.06;12798551;23;20017;-78
2023/09/26 13:25:50;;;;;;;16.42;2.67;;;;;;;26.50;34.71;100870.47;12770197;23;20017;-79
2023/09/26 13:30:50;;;;;;;15.60;2.50;;;;;;;26.04;34.68;100810.19;12796993;23;20020;-78
2023/09/26 13:35:51;;;;;;;12.70;2.47;;;;;;;26.23;34.67;100859.63;12798625;23;20111;-80
2023/09/26 13:40:52;;;;;;;16.80;2.92;;;;;;;26.19;35.02;100858.50;12798289;23;20024;-79
2023/09/26 13:45:53;;;;;;;20.25;2.92;;;;;;;26.19;34.61;100877.56;12798234;23;20013;-78
2023/09/26 13:50:53;;;;;;;9.70;2.42;;;;;;;25.82;34.12;100837.50;12798327;23;20396;-82
2023/09/26 13:55:54;;;;;;;26.20;3.33;;;;;;;25.94;34.69;100878.97;12798112;23;20025;-79
2023/09/26 14:00:55;;;;;;;27.08;3.03;;;;;;;25.81;35.57;100881.25;12797223;23;20118;-78
2023/09/26 14:05:56;;;;;;;12.00;2.83;;;;;;;25.71;35.85;100887.41;12797991;23;20012;-79
2023/09/26 14:10:57;;;;;;;20.20;3.03;;;;;;;25.49;36.20;100876.56;12797965;23;20072;-81
2023/09/26 14:15:58;;;;;;;24.85;3.70;;;;;;;25.39;36.71;100899.00;12797247;23;20021;-80
2023/09/26 14:20:59;;;;;;;11.52;2.60;;;;;;;25.15;36.04;100868.50;12797811;23;20021;-79
2023/09/26 14:25:59;;;;;;;22.13;3.63;;;;;;;25.10;36.79;100897.47;12796568;23;20017;-77
2023/09/26 14:31:00;;;;;;;13.40;3.20;;;;;;;24.67;36.95;100855.59;12797132;23;20379;-79
2023/09/26 14:36:01;;;;;;;10.63;2.60;;;;;;;24.42;37.92;100843.25;12797925;23;20481;-76
2023/09/26 14:41:02;;;;;;;20.42;3.15;;;;;;;24.41;38.34;100882.34;12796711;23;20104;-80
2023/09/26 14:46:05;;;;;;;23.13;2.90;;;;;;;24.08;39.13;100864.09;12795187;23;20024;-83
2023/09/26 15:03:35;;;;;;;16.25;2.95;;;;;;;22.34;39.92;100695.31;12426484;23;20016;-82
2023/09/26 15:08:58;;;;;;;20.48;2.88;;;;;;;22.20;40.69;100710.97;12489513;23;20019;-82
2023/09/26 15:14:04;;;;;;;29.05;3.40;;;;;;;22.60;40.89;100802.28;12751584;23;20021;-81
2023/09/26 15:19:26;;;;;;;26.13;3.90;;;;;;;21.95;41.06;100734.69;12778270;23;20021;-83
2023/09/26 15:24:35;;;;;;;23.30;3.67;;;;;;;22.01;41.21;100768.91;12800171;23;20017;-82
2023/09/26 15:29:46;;;;;;;20.40;3.15;;;;;;;22.61;41.89;100893.28;12800347;23;20025;-80
2023/09/26 15:34:47;;;;;;;10.50;2.50;;;;;;;22.91;41.79;100954.66;12799048;23;20036;-80
2023/09/26 15:39:48;;;;;;;11.88;3.13;;;;;;;22.30;41.94;100870.06;12795053;23;20059;-79
2023/09/26 15:44:48;;;;;;;17.95;3.42;;;;;;;;;;12799643;23;20020;-79
2023/09/26 15:49:49;;;;;;;22.98;2.95;;;;;;;22.08;42.70;100881.41;12800073;23;20017;-80
2023/09/26 15:54:52;;;;;;;23.63;3.55;;;;;;;22.44;42.82;100952.72;12800713;23;20031;-80
2023/09/26 15:59:53;;;;;;;14.38;2.70;;;;;;;21.92;43.23;100905.56;12773582;23;20097;-79
2023/09/26 16:04:57;;;;;;;20.33;3.17;;;;;;;22.00;43.61;100940.41;12799418;23;20132;-79
2023/09/26 16:09:57;;;;;;;20.02;2.88;;;;;;;21.94;43.64;100958.38;12799189;23;20013;-79
2023/09/26 16:14:58;;;;;;;18.52;2.85;;;;;;;21.51;43.82;100915.22;12800383;23;20028;-82
2023/09/26 16:19:59;;;;;;;13.75;3.15;;;;;;;21.79;44.18;100976.88;12799543;23;20067;-81
2023/09/26 16:25:12;;;;;;;;;;;;;;;21.83;44.28;100986.19;12799936;23;20075;-81
2023/09/26 16:30:13;;;;;;;11.70;3.50;;;;;;;21.15;44.79;100927.69;12799977;23;19916;-82
2023/09/26 16:35:14;;;;;;;26.45;3.63;;;;;;;21.17;45.15;100963.38;12799278;23;20468;-82
2023/09/26 16:40:15;;;;;;;10.23;4.57;;;;;;;21.00;45.56;100959.59;12773208;23;20021;-85
2023/09/26 16:45:16;;;;;;;21.27;6.50;;;;;;;20.48;45.86;100900.41;12798776;23;20017;-84
2023/09/26 16:50:19;;;;;;;23.65;2.97;;;;;;;20.47;46.44;100926.56;12798940;23;20048;-82
2023/09/26 16:55:43;;;;;;;17.58;3.72;;;;;;;20.69;46.77;100985.63;12799110;23;20566;-82
2023/09/26 17:00:47;;;;;;;11.43;2.78;;;;;;;19.13;47.08;100745.06;12799311;23;20017;-80
2023/09/26 17:06:10;;;;;;;23.27;3.33;;;;;;;20.74;48.21;101019.00;12794796;23;20013;-82
2023/09/26 17:11:19;;;;;;;16.02;2.70;;;;;;;20.25;48.42;100973.81;12794812;23;20017;-80
2023/09/26 17:16:24;;;;;;;17.20;2.33;;;;;;;20.26;50.14;100995.22;12796308;23;20021;-80
2023/09/26 17:39:21;;;;;;;;;;;;;;;;;;;;;
2023/09/26 17:51:03;;;;;;;;;;;;;;;;;;;;;
2023/09/26 17:56:56;;;;;;;13.15;2.38;;;;;;;19.59;61.61;101031.50;12858730;23;20353;-86
2023/09/26 18:01:58;;;;;;;7.95;1.95;;;;;;;18.45;61.38;100881.84;12859972;23;20020;-87
2023/09/26 18:06:59;;;;;;;8.98;1.88;;;;;;;18.03;63.12;100822.03;12831896;23;20071;-85
2023/09/26 18:12:19;;;;;;;22.25;2.38;;;;;;;18.02;66.32;100836.50;12858158;23;20055;-79
2023/09/26 18:17:22;;;;;;;8.13;1.98;;;;;;;18.78;67.57;100969.84;12859380;23;20337;-84
2023/09/26 18:22:27;;;;;;;6.43;1.80;;;;;;;19.08;68.70;101030.31;12844325;23;20027;-83
2023/09/26 18:27:27;;;;;;;9.02;1.85;;;;;;;18.61;68.82;100964.84;12796154;23;20334;-83
2023/09/26 18:32:28;;;;;;;7.40;1.88;;;;;;;17.66;70.04;100840.34;12795969;23;20021;-83
2023/09/26 18:37:32;;;;;;;7.22;2.30;;;;;;;17.55;71.43;100830.16;12796468;23;20024;-82
2023/09/26 18:42:33;;;;;;;6.43;1.90;;;;;;;17.93;72.95;100907.63;12796270;23;20400;-81
2023/09/26 18:47:36;;;;;;;8.35;2.10;;;;;;;17.25;73.51;100817.03;12798046;23;20096;-82
2023/09/26 18:52:37;;;;;;;5.78;1.90;;;;;;;18.34;74.52;100996.28;12799789;23;20021;-80
2023/09/26 18:57:38;;;;;;;6.70;2.00;;;;;;;17.91;75.16;100950.00;12800651;23;20025;-80
2023/09/26 19:02:39;;;;;;;5.35;2.00;;;;;;;17.55;76.37;100906.22;12799586;23;20020;-81
2023/09/26 19:07:40;;;;;;;7.35;2.33;;;;;;;17.52;77.54;100917.34;12800342;23;20020;-81
2023/09/26 19:12:41;;;;;;;7.43;2.10;;;;;;;17.57;78.19;100946.31;12801014;23;20023;-80
2023/09/26 19:17:41;;;;;;;13.02;2.45;;;;;;;17.89;79.02;101005.81;12773351;23;20330;-80
2023/09/26 19:22:42;;;;;;;5.72;2.20;;;;;;;17.93;80.22;101029.41;12798538;23;20071;-80
2023/09/26 19:27:43;;;;;;;9.82;3.03;;;;;;;17.69;80.81;101000.31;12800751;23;20128;-80
2023/09/26 19:32:43;;;;;;;11.32;2.20;;;;;;;17.51;82.38;100987.41;12773734;23;20469;-80
2023/09/26 19:37:44;;;;;;;7.65;2.40;;;;;;;17.57;83.13;101014.31;12773968;23;20027;-81
2023/09/26 19:42:45;;;;;;;7.68;2.42;;;;;;;17.65;84.23;101028.59;12798857;23;20017;-80
2023/09/26 19:47:47;;;;;;;6.32;2.30;;;;;;;17.28;85.48;100980.44;12797949;23;20021;-79
2023/09/26 19:52:48;;;;;;;5.75;2.85;;;;;;;17.16;86.40;100973.94;12800688;23;20025;-79
2023/09/26 19:57:50;;;;;;;10.25;3.22;;;;;;;17.31;86.87;101006.06;12799153;23;20025;-79
2023/09/26 20:02:51;;;;;;;14.35;3.95;;;;;;;17.00;88.31;100968.91;12799467;23;20024;-81
2023/09/26 20:07:52;;;;;;;6.88;4.07;;;;;;;17.18;89.75;101008.69;12799571;23;20017;-80
2023/09/26 20:12:53;;;;;;;13.75;7.18;;;;;;;17.30;89.82;101034.78;12799599;23;20095;-80
2023/09/26 20:17:53;;;;;;;21.15;11.93;;;;;;;16.90;90.47;100979.94;12799764;23;20398;-79
2023/09/26 20:22:54;;;;;;;24.67;17.95;;;;;;;17.19;91.15;101029.13;12798605;23;20024;-79
2023/09/26 20:27:55;;;;;;;27.42;21.80;;;;;;;16.43;91.51;100922.38;12799670;23;20017;-79
2023/09/26 20:32:56;;;;;;;41.53;26.30;;;;;;;16.64;92.27;100977.84;12799738;23;20048;-80
2023/09/26 20:37:57;;;;;;;38.88;28.70;;;;;;;16.65;92.74;100985.69;12798670;23;20103;-79
2023/09/26 20:42:58;;;;;;;42.97;32.92;;;;;;;16.03;93.58;100892.47;12799358;23;20017;-79
2023/09/26 20:47:58;;;;;;;48.15;36.35;;;;;;;16.86;94.62;101035.03;12798679;23;20012;-78
2023/09/26 20:52:59;;;;;;;44.85;36.63;;;;;;;16.84;95.59;101034.38;12799250;23;20100;-78
2023/09/26 20:58:00;;;;;;;57.95;39.33;;;;;;;16.44;96.15;100973.09;12798507;23;20024;-79
2023/09/26 21:09:16;;;;;;;60.10;47.72;;;;;;;16.28;96.71;100940.38;12797832;23;20025;-79
2023/09/26 21:14:17;;;;;;;59.10;47.03;;;;;;;16.67;98.11;101010.47;12772173;23;20013;-79
2023/09/26 21:19:18;;;;;;;58.13;48.13;;;;;;;16.12;98.94;100933.38;12798156;23;20544;-79
2023/09/26 21:24:19;;;;;;;61.75;47.03;;;;;;;15.69;99.47;100872.53;12772071;23;20044;-78
2023/09/26 21:29:19;;;;;;;55.95;45.22;;;;;;;16.56;99.97;101015.53;12798465;23;20044;-79
2023/09/26 21:34:20;;;;;;;53.13;44.45;;;;;;;16.18;100.00;100968.31;12797960;23;20028;-80
2023/09/26 21:39:21;;;;;;;53.70;43.00;;;;;;;16.22;100.00;100984.84;12798332;23;20175;-80
2023/09/26 21:44:21;;;;;;;51.15;39.88;;;;;;;15.86;100.00;100926.72;12798561;23;20016;-79
2023/09/26 21:49:22;;;;;;;42.75;34.22;;;;;;;16.41;100.00;101013.72;12797341;23;20021;-79
2023/09/26 21:54:23;;;;;;;33.42;29.63;;;;;;;16.01;100.00;100958.03;12797275;23;20104;-80
2023/09/26 21:59:24;;;;;;;38.08;26.42;;;;;;;16.43;100.00;101016.22;12797933;23;20013;-80
2023/09/26 22:04:24;;;;;;;34.88;24.17;;;;;;;16.16;100.00;100956.13;12796896;23;20017;-80
2023/09/26 22:09:25;;;;;;;32.55;21.95;;;;;;;16.60;100.00;101022.16;12798159;23;20515;-80
2023/09/26 22:14:26;;;;;;;29.48;20.35;;;;;;;16.16;100.00;100961.47;12771572;23;20025;-80
2023/09/26 22:19:27;;;;;;;29.90;19.73;;;;;;;16.21;100.00;100961.72;12797731;23;20147;-80
2023/09/26 22:24:28;;;;;;;25.58;19.23;;;;;;;15.85;100.00;100902.78;12797531;23;20028;-81
2023/09/26 22:29:29;;;;;;;26.02;18.88;;;;;;;16.12;100.00;100944.09;12797495;23;20479;-79
2023/09/26 22:34:30;;;;;;;25.15;18.45;;;;;;;16.04;100.00;100928.16;12797410;23;20017;-80
2023/09/26 22:39:31;;;;;;;25.30;18.80;;;;;;;15.86;100.00;100899.94;12797639;23;20473;-80
2023/09/26 22:44:32;;;;;;;25.15;18.20;;;;;;;16.06;100.00;100923.41;12797294;23;20104;-81
2023/09/26 22:49:34;;;;;;;25.10;16.98;;;;;;;16.32;100.00;100971.13;12797590;23;20475;-79
2023/09/26 22:54:35;;;;;;;25.65;16.85;;;;;;;16.11;100.00;100929.06;12797844;23;20044;-80
2023/09/26 22:59:35;;;;;;;27.65;17.92;;;;;;;15.83;100.00;100896.81;12797465;23;20024;-81
2023/09/26 23:04:36;;;;;;;29.60;16.80;;;;;;;16.62;100.00;101015.56;12770392;23;20020;-80
2023/09/26 23:09:37;;;;;;;24.00;16.55;;;;;;;16.69;100.00;101014.81;12797457;23;20017;-80
2023/09/26 23:14:38;;;;;;;25.27;16.15;;;;;;;16.27;100.00;100946.72;12770844;23;20060;-80
2023/09/26 23:19:39;;;;;;;20.63;15.50;;;;;;;16.43;100.00;100981.34;12770713;23;20017;-80
2023/09/26 23:24:39;;;;;;;20.98;15.13;;;;;;;16.52;100.00;101000.84;12797237;23;20017;-79
2023/09/26 23:29:40;;;;;;;22.83;14.27;;;;;;;16.56;100.00;101008.31;12797006;23;20357;-79
2023/09/26 23:34:43;;;;;;;21.40;14.80;;;;;;;15.89;100.00;100915.63;12773749;23;20020;-79
2023/09/26 23:39:44;;;;;;;21.77;14.10;;;;;;;15.12;100.00;100806.31;12774459;23;20456;-79
2023/09/26 23:44:45;;;;;;;22.38;13.75;;;;;;;15.88;100.00;100939.91;12800430;23;20083;-79
2023/09/26 23:49:45;;;;;;;19.33;13.40;;;;;;;15.53;100.00;100908.38;12773766;23;20093;-80
2023/09/26 23:54:46;;;;;;;19.75;13.75;;;;;;;15.55;100.00;100910.84;12799898;23;20051;-80
2023/09/26 23:59:48;;;;;;;23.70;13.43;;;;;;;15.76;100.00;100961.00;12773380;23;20013;-79
